Terminal Aerodrome Forecast
Issued by NWS

Home | Current Version | Previous Version | Text Only | Print | Product List | Glossary On
Versions: 1 2 3 4 5 6 7 8 9 10 11 12 13
633
FTPA31 PHFO 171123
TAFHKO
TAF
PHKO 171123Z 1712/1812 15007KT P6SM SCT025 BKN040
     FM172000 20011KT P6SM FEW030 SCT050
     FM180600 VRB06KT P6SM VCSH SCT030 BKN050=

USA.gov is the U.S. government's official web portal to all federal, state and local government web resources and services.